createdAt,value
2022-10-15T00:01:13.691Z,1.20
2022-10-15T00:06:22.236Z,3.17
2022-10-15T00:08:50.188Z,1.23
2022-10-15T00:11:20.255Z,1.10
2022-10-15T00:13:48.287Z,0.90
2022-10-15T00:16:18.144Z,1.30
2022-10-15T00:18:46.175Z,1.93
2022-10-15T00:21:15.642Z,1.90
2022-10-15T00:23:45.434Z,1.30
2022-10-15T00:26:16.046Z,0.80
2022-10-15T00:28:43.881Z,3.77
2022-10-15T00:31:13.949Z,1.00
2022-10-15T00:33:42.131Z,0.90
2022-10-15T00:36:12.875Z,0.80
2022-10-15T00:38:40.622Z,1.17
2022-10-15T00:41:14.463Z,0.80
2022-10-15T00:43:44.504Z,1.47
2022-10-15T00:46:24.973Z,1.77
2022-10-15T00:48:56.770Z,1.13
2022-10-15T00:51:28.526Z,0.80
2022-10-15T00:53:56.378Z,1.30
2022-10-15T00:56:28.426Z,1.00
2022-10-15T00:58:57.722Z,1.57
2022-10-15T01:01:28.583Z,1.47
2022-10-15T01:03:57.074Z,1.67
2022-10-15T01:06:25.681Z,0.93
2022-10-15T01:08:53.624Z,0.70
2022-10-15T01:11:38.996Z,2.00
2022-10-15T01:14:29.091Z,1.00
2022-10-15T01:17:05.850Z,1.67
2022-10-15T01:19:58.705Z,1.87
2022-10-15T01:22:37.647Z,1.50
2022-10-15T01:25:25.378Z,1.57
2022-10-15T01:27:57.933Z,1.10
2022-10-15T01:30:32.783Z,1.37
2022-10-15T01:33:25.801Z,0.80
2022-10-15T01:36:01.373Z,1.53
2022-10-15T01:38:40.325Z,0.90
2022-10-15T01:41:12.346Z,1.23
2022-10-15T01:43:47.577Z,0.90
2022-10-15T01:46:22.458Z,1.47
2022-10-15T01:48:52.634Z,2.00
2022-10-15T01:51:21.755Z,0.70
2022-10-15T01:53:51.394Z,2.33
2022-10-15T01:56:22.742Z,0.70
2022-10-15T01:58:53.806Z,0.70
2022-10-15T02:01:22.924Z,1.03
2022-10-15T02:03:52.549Z,1.60
2022-10-15T02:06:24.948Z,1.17
2022-10-15T02:09:03.150Z,1.30
2022-10-15T02:11:35.395Z,0.73
2022-10-15T02:14:09.600Z,2.33
2022-10-15T02:16:44.381Z,1.03
2022-10-15T02:19:18.018Z,0.67
2022-10-15T02:21:50.447Z,1.00
2022-10-15T02:24:24.460Z,0.83
2022-10-15T02:26:56.623Z,1.07
2022-10-15T02:29:28.098Z,0.73
2022-10-15T02:31:59.910Z,0.90
2022-10-15T02:34:31.034Z,0.70
2022-10-15T02:37:02.013Z,0.50
2022-10-15T02:39:29.875Z,0.60
2022-10-15T02:41:58.414Z,1.03
2022-10-15T02:44:26.051Z,0.60
2022-10-15T02:46:56.765Z,0.60
2022-10-15T02:49:25.767Z,1.07
2022-10-15T02:51:53.687Z,2.33
2022-10-15T02:54:21.342Z,0.73
2022-10-15T02:56:49.044Z,0.93
2022-10-15T02:59:18.433Z,0.60
2022-10-15T03:01:46.340Z,1.13
2022-10-15T03:04:13.912Z,0.90
2022-10-15T03:06:42.872Z,1.07
2022-10-15T03:09:10.467Z,0.67
2022-10-15T03:11:39.367Z,1.23
2022-10-15T03:14:07.015Z,0.50
2022-10-15T03:16:34.631Z,2.13
2022-10-15T03:19:02.211Z,3.30
2022-10-15T03:21:31.000Z,0.87
2022-10-15T03:24:00.234Z,0.40
2022-10-15T03:26:27.818Z,0.70
2022-10-15T03:28:55.746Z,0.67
2022-10-15T03:31:23.370Z,1.77
2022-10-15T03:33:50.963Z,1.13
2022-10-15T03:36:18.685Z,1.67
2022-10-15T03:38:46.318Z,0.73
2022-10-15T03:41:15.260Z,0.90
2022-10-15T03:43:43.206Z,1.43
2022-10-15T03:46:11.125Z,1.10
2022-10-15T03:48:39.335Z,1.07
2022-10-15T03:51:07.119Z,1.40
2022-10-15T03:53:34.663Z,0.83
2022-10-15T03:56:05.101Z,1.67
2022-10-15T03:58:34.102Z,0.47
2022-10-15T04:01:01.737Z,0.50
2022-10-15T04:03:29.309Z,1.80
2022-10-15T04:05:58.722Z,0.50
2022-10-15T04:08:29.088Z,1.20
2022-10-15T04:10:56.665Z,0.57
2022-10-15T04:13:24.302Z,1.40
2022-10-15T04:15:53.275Z,0.53
2022-10-15T04:18:21.827Z,0.93
2022-10-15T04:20:49.482Z,0.87
2022-10-15T04:23:18.549Z,0.80
2022-10-15T04:25:46.164Z,1.07
2022-10-15T04:28:13.774Z,0.70
2022-10-15T04:30:41.408Z,1.80
2022-10-15T04:33:10.986Z,1.43
2022-10-15T04:35:38.656Z,2.83
2022-10-15T04:38:06.718Z,0.77
2022-10-15T04:40:34.298Z,1.03
2022-10-15T04:43:01.903Z,0.40
2022-10-15T04:45:29.495Z,0.70
2022-10-15T04:47:57.916Z,0.90
2022-10-15T04:50:26.992Z,0.70
2022-10-15T04:52:54.556Z,0.30
2022-10-15T04:55:22.182Z,1.07
2022-10-15T04:57:49.887Z,1.00
2022-10-15T05:00:17.656Z,0.23
2022-10-15T05:02:45.312Z,0.20
2022-10-15T05:05:12.901Z,0.20
2022-10-15T05:07:41.802Z,0.30
2022-10-15T05:10:09.954Z,0.30
2022-10-15T05:12:37.561Z,0.50
2022-10-15T05:15:05.567Z,0.50
2022-10-15T05:17:33.211Z,0.67
2022-10-15T05:20:00.830Z,0.20
2022-10-15T05:22:28.438Z,0.30
2022-10-15T05:24:57.366Z,0.30
2022-10-15T05:27:25.203Z,0.67
2022-10-15T05:29:53.126Z,1.07
2022-10-15T05:34:51.389Z,0.57
2022-10-15T05:37:19.108Z,0.23
2022-10-15T05:39:46.701Z,1.03
2022-10-15T05:42:15.662Z,0.40
2022-10-15T05:44:43.290Z,1.93
2022-10-15T05:47:12.410Z,0.20
2022-10-15T05:49:40.095Z,0.20
2022-10-15T05:52:07.726Z,0.30
2022-10-15T05:54:35.315Z,0.63
2022-10-15T05:57:02.951Z,0.67
2022-10-15T05:59:32.132Z,0.40
2022-10-15T06:01:59.935Z,0.30
2022-10-15T06:04:29.541Z,0.47
2022-10-15T06:06:59.564Z,0.30
2022-10-15T06:09:27.224Z,0.30
2022-10-15T06:11:54.787Z,0.30
2022-10-15T06:14:22.458Z,1.50
2022-10-15T06:16:52.832Z,1.07
2022-10-15T06:19:20.409Z,0.63
2022-10-15T06:21:47.980Z,0.37
2022-10-15T06:24:15.511Z,0.30
2022-10-15T06:26:43.113Z,0.63
2022-10-15T06:29:13.541Z,0.20
2022-10-15T06:31:41.181Z,0.30
2022-10-15T06:34:10.211Z,0.87
2022-10-15T06:36:38.896Z,0.27
2022-10-15T06:39:06.800Z,0.43
2022-10-15T06:41:34.368Z,0.50
2022-10-15T06:44:02.022Z,0.40
2022-10-15T06:46:29.599Z,0.73
2022-10-15T06:48:57.237Z,0.37
2022-10-15T06:51:26.194Z,0.50
2022-10-15T06:53:53.786Z,0.40
2022-10-15T06:56:21.405Z,0.73
2022-10-15T06:58:48.956Z,0.63
2022-10-15T07:01:17.208Z,0.30
2022-10-15T07:03:44.839Z,0.47
2022-10-15T07:06:12.538Z,1.17
2022-10-15T07:08:41.477Z,0.33
2022-10-15T07:11:10.346Z,2.20
2022-10-15T07:13:38.215Z,0.40
2022-10-15T07:16:06.983Z,1.23
2022-10-15T07:18:37.994Z,0.47
2022-10-15T07:21:13.191Z,0.50
2022-10-15T07:23:42.339Z,0.20
2022-10-15T07:26:09.979Z,1.13
2022-10-15T07:28:37.579Z,0.30
2022-10-15T07:31:08.199Z,0.60
2022-10-15T07:33:36.490Z,0.30
2022-10-15T07:36:06.229Z,0.63
2022-10-15T07:38:33.884Z,0.40
2022-10-15T07:41:04.188Z,0.57
2022-10-15T07:43:31.878Z,0.43
2022-10-15T07:45:59.483Z,1.10
2022-10-15T07:48:29.121Z,0.30
2022-10-15T07:50:57.080Z,0.27
2022-10-15T07:53:24.849Z,0.30
2022-10-15T07:55:55.636Z,0.90
2022-10-15T07:58:24.568Z,0.30
2022-10-15T08:00:52.194Z,0.93
2022-10-15T08:03:19.766Z,0.70
2022-10-15T08:05:47.410Z,1.10
2022-10-15T08:08:15.021Z,0.20
2022-10-15T08:10:42.576Z,0.57
2022-10-15T08:13:10.110Z,0.77
2022-10-15T08:15:41.452Z,0.33
2022-10-15T08:18:09.954Z,0.97
2022-10-15T08:20:37.679Z,0.67
2022-10-15T08:23:05.743Z,0.30
2022-10-15T08:25:33.401Z,0.30
2022-10-15T08:28:01.043Z,0.47
2022-10-15T08:30:28.688Z,0.57
2022-10-15T08:32:58.185Z,0.60
2022-10-15T08:35:26.585Z,0.20
2022-10-15T08:37:55.017Z,0.60
2022-10-15T08:40:23.691Z,0.30
2022-10-15T08:42:52.330Z,0.30
2022-10-15T08:45:26.431Z,1.17
2022-10-15T08:47:59.588Z,1.27
2022-10-15T08:50:33.199Z,2.00
2022-10-15T08:53:01.458Z,0.97
2022-10-15T08:55:33.028Z,0.93
2022-10-15T08:58:13.731Z,0.70
2022-10-15T09:00:45.022Z,0.73
2022-10-15T09:03:28.783Z,1.47
2022-10-15T09:06:05.438Z,0.37
2022-10-15T09:08:42.847Z,1.70
2022-10-15T09:11:17.712Z,0.40
2022-10-15T09:13:47.605Z,0.23
2022-10-15T09:16:17.820Z,0.83
2022-10-15T09:18:48.865Z,0.30
2022-10-15T09:21:16.789Z,0.70
2022-10-15T09:23:45.294Z,0.30
2022-10-15T09:26:28.264Z,0.60
2022-10-15T09:29:04.261Z,0.43
2022-10-15T09:31:39.503Z,0.30
2022-10-15T09:34:15.635Z,0.83
2022-10-15T09:36:48.808Z,0.87
2022-10-15T09:39:41.314Z,1.07
2022-10-15T09:42:20.860Z,0.60
2022-10-15T09:44:49.209Z,0.50
2022-10-15T09:47:18.875Z,0.53
2022-10-15T09:49:47.853Z,1.13
2022-10-15T09:52:24.703Z,0.80
2022-10-15T09:55:04.308Z,0.57
2022-10-15T09:57:33.590Z,0.80
2022-10-15T10:00:03.741Z,0.60
2022-10-15T10:02:33.799Z,0.67
2022-10-15T10:05:27.710Z,0.70
2022-10-15T10:08:09.100Z,2.87
2022-10-15T10:10:46.722Z,1.03
2022-10-15T10:13:24.812Z,1.23
2022-10-15T10:15:58.290Z,1.07
2022-10-15T10:18:27.425Z,0.60
2022-10-15T10:20:59.613Z,1.43
2022-10-15T10:23:34.551Z,1.17
2022-10-15T10:26:04.566Z,1.03
2022-10-15T10:28:39.278Z,0.87
2022-10-15T10:31:11.035Z,1.40
2022-10-15T10:33:45.561Z,0.77
2022-10-15T10:36:25.577Z,0.70
2022-10-15T10:39:01.623Z,1.07
2022-10-15T10:41:50.919Z,1.00
2022-10-15T10:44:24.036Z,0.40
2022-10-15T10:47:18.678Z,1.27
2022-10-15T10:49:48.793Z,1.02
2022-10-15T10:52:29.565Z,0.50
2022-10-15T10:55:01.696Z,0.57
2022-10-15T10:57:40.493Z,0.53
2022-10-15T11:00:13.301Z,1.80
2022-10-15T11:02:43.939Z,0.60
2022-10-15T11:05:12.494Z,1.90
2022-10-15T11:07:51.296Z,0.70
2022-10-15T11:10:25.907Z,0.83
2022-10-15T11:13:08.682Z,0.40
2022-10-15T11:15:45.410Z,0.97
2022-10-15T11:18:31.429Z,0.77
2022-10-15T11:21:08.439Z,1.57
2022-10-15T11:23:55.328Z,0.50
2022-10-15T11:26:52.039Z,0.93
2022-10-15T11:29:35.036Z,1.33
2022-10-15T11:32:17.242Z,0.60
2022-10-15T11:35:02.206Z,0.93
2022-10-15T11:37:42.142Z,0.68
2022-10-15T11:40:22.628Z,0.68
2022-10-15T11:42:58.339Z,0.85
2022-10-15T11:45:44.914Z,0.70
2022-10-15T11:48:17.291Z,1.40
2022-10-15T11:50:50.730Z,0.40
2022-10-15T11:53:53.685Z,0.85
2022-10-15T11:56:26.591Z,1.07
2022-10-15T11:59:00.337Z,0.65
2022-10-15T12:01:34.922Z,1.55
2022-10-15T12:04:09.453Z,0.60
2022-10-15T12:06:41.061Z,0.32
2022-10-15T12:09:09.420Z,0.70
2022-10-15T12:11:49.301Z,0.50
2022-10-15T12:14:25.212Z,0.50
2022-10-15T12:17:00.428Z,0.38
2022-10-15T12:19:31.064Z,0.63
2022-10-15T12:22:10.814Z,1.38
2022-10-15T12:24:54.130Z,1.17
2022-10-15T12:27:30.405Z,2.33
2022-10-15T12:30:34.259Z,1.88
2022-10-15T12:33:03.179Z,0.68
2022-10-15T12:35:38.389Z,0.73
2022-10-15T12:38:28.228Z,0.73
2022-10-15T12:41:02.462Z,2.45
2022-10-15T12:43:33.518Z,0.70
2022-10-15T12:46:03.388Z,0.40
2022-10-15T12:48:34.211Z,1.95
2022-10-15T12:51:38.643Z,0.40
2022-10-15T12:54:41.128Z,1.27
2022-10-15T12:57:46.385Z,0.65
2022-10-15T13:00:42.558Z,0.70
2022-10-15T13:03:22.014Z,1.38
2022-10-15T13:05:53.260Z,0.80
2022-10-15T13:08:24.330Z,0.50
2022-10-15T13:10:55.638Z,1.27
2022-10-15T13:13:28.147Z,1.20
2022-10-15T13:16:00.422Z,0.85
2022-10-15T13:18:30.949Z,0.60
2022-10-15T13:20:59.483Z,1.38
2022-10-15T13:23:30.000Z,0.63
2022-10-15T13:26:13.001Z,0.60
2022-10-15T13:28:42.498Z,0.65
2022-10-15T13:31:16.847Z,2.05
2022-10-15T13:33:46.990Z,1.08
2022-10-15T13:36:21.275Z,1.48
2022-10-15T13:38:54.572Z,0.90
2022-10-15T13:41:27.446Z,0.70
2022-10-15T13:43:58.896Z,1.27
2022-10-15T13:46:29.385Z,0.63
2022-10-15T13:49:05.520Z,1.67
2022-10-15T13:51:35.601Z,1.40
2022-10-15T13:54:08.732Z,1.05
2022-10-15T13:56:36.530Z,0.82
2022-10-15T13:59:05.019Z,0.90
2022-10-15T14:01:36.185Z,0.50
2022-10-15T14:04:05.106Z,0.63
2022-10-15T14:06:35.082Z,0.77
2022-10-15T14:09:15.014Z,1.77
2022-10-15T14:11:42.622Z,1.13
2022-10-15T14:14:32.273Z,0.73
2022-10-15T14:17:05.247Z,2.08
2022-10-15T14:19:34.769Z,1.02
2022-10-15T14:22:03.279Z,1.58
2022-10-15T14:24:34.058Z,1.38
2022-10-15T14:27:07.358Z,0.70
2022-10-15T14:29:43.668Z,1.67
2022-10-15T14:32:24.938Z,0.73
2022-10-15T14:34:53.677Z,0.80
2022-10-15T14:37:43.401Z,2.42
2022-10-15T14:40:18.539Z,0.80
2022-10-15T14:42:48.777Z,0.70
2022-10-15T14:45:24.283Z,0.80
2022-10-15T14:47:57.007Z,2.17
2022-10-15T14:50:27.479Z,2.83
2022-10-15T14:52:55.815Z,1.83
2022-10-15T14:55:33.390Z,2.33
2022-10-15T14:58:03.420Z,1.17
2022-10-15T15:00:34.573Z,2.83
2022-10-15T15:03:07.196Z,0.95
2022-10-15T15:05:46.818Z,2.63
2022-10-15T15:08:14.499Z,0.98
2022-10-15T15:10:43.014Z,1.08
2022-10-15T15:13:13.174Z,2.85
2022-10-15T15:15:41.395Z,1.55
2022-10-15T15:18:11.830Z,0.57
2022-10-15T15:20:40.671Z,1.23
2022-10-15T15:23:11.750Z,1.52
2022-10-15T15:25:41.134Z,0.90
2022-10-15T15:28:13.838Z,0.70
2022-10-15T15:30:43.667Z,0.85
2022-10-15T15:33:14.861Z,0.80
2022-10-15T15:35:50.816Z,1.20
2022-10-15T15:38:18.961Z,1.95
2022-10-15T15:40:46.583Z,0.80
2022-10-15T15:43:16.165Z,1.35
2022-10-15T15:45:43.914Z,0.77
2022-10-15T15:48:12.926Z,2.25
2022-10-15T15:50:40.527Z,1.13
2022-10-15T15:53:08.084Z,0.85
2022-10-15T15:55:35.669Z,2.08
2022-10-15T15:58:03.235Z,1.17
2022-10-15T16:00:30.955Z,1.20
2022-10-15T16:02:58.583Z,1.88
2022-10-15T16:05:27.575Z,2.13
2022-10-15T16:07:55.246Z,3.65
2022-10-15T16:10:22.878Z,3.00
2022-10-15T16:12:50.467Z,4.35
2022-10-15T16:15:18.277Z,3.75
2022-10-15T16:17:45.855Z,2.17
2022-10-15T16:20:14.059Z,3.30
2022-10-15T16:22:43.009Z,1.80
2022-10-15T16:25:11.291Z,1.83
2022-10-15T16:27:38.856Z,3.67
2022-10-15T16:30:07.541Z,2.45
2022-10-15T16:32:35.074Z,2.95
2022-10-15T16:35:02.692Z,1.83
2022-10-15T16:37:30.273Z,2.08
2022-10-15T16:39:59.186Z,1.63
2022-10-15T16:42:26.823Z,1.55
2022-10-15T16:44:54.379Z,3.05
2022-10-15T16:47:22.094Z,1.58
2022-10-15T16:49:50.009Z,2.80
2022-10-15T16:52:17.608Z,2.72
2022-10-15T16:54:45.170Z,1.73
2022-10-15T16:57:14.216Z,2.85
2022-10-15T16:59:41.934Z,2.45
2022-10-15T17:02:10.267Z,1.52
2022-10-15T17:04:37.928Z,3.13
2022-10-15T17:07:05.848Z,2.25
2022-10-15T17:09:34.123Z,2.85
2022-10-15T17:12:01.746Z,2.50
2022-10-15T17:14:30.800Z,2.35
2022-10-15T17:16:58.359Z,2.55
2022-10-15T17:19:29.159Z,3.47
2022-10-15T17:21:59.488Z,2.47
2022-10-15T17:24:27.077Z,2.78
2022-10-15T17:26:57.735Z,1.90
2022-10-15T17:29:29.058Z,3.78
2022-10-15T17:32:01.567Z,2.75
2022-10-15T17:34:29.463Z,1.88
2022-10-15T17:36:57.410Z,2.95
2022-10-15T17:39:25.178Z,4.57
2022-10-15T17:41:53.083Z,3.53
2022-10-15T17:44:20.796Z,2.55
2022-10-15T17:49:22.399Z,2.67
2022-10-15T17:51:50.056Z,3.92
2022-10-15T17:54:17.756Z,2.08
2022-10-15T17:56:45.415Z,2.67
2022-10-15T17:59:13.447Z,2.50
2022-10-15T18:01:59.568Z,2.17
2022-10-15T18:04:29.649Z,2.13
2022-10-15T18:07:00.175Z,3.45
2022-10-15T18:09:28.604Z,3.40
2022-10-15T18:11:56.693Z,2.20
2022-10-15T18:14:24.350Z,2.10
2022-10-15T18:16:51.991Z,3.83
2022-10-15T18:19:19.785Z,2.63
2022-10-15T18:21:49.641Z,2.30
2022-10-15T18:24:22.614Z,2.80
2022-10-15T18:26:50.766Z,3.28
2022-10-15T18:29:22.348Z,3.92
2022-10-15T18:31:53.582Z,5.47
2022-10-15T18:34:24.019Z,4.72
2022-10-15T18:36:53.060Z,4.65
2022-10-15T18:39:20.763Z,4.85
2022-10-15T18:41:48.389Z,4.03
2022-10-15T18:44:21.458Z,4.13
2022-10-15T18:46:49.199Z,4.13
2022-10-15T18:49:18.294Z,3.53
2022-10-15T18:51:50.844Z,4.40
2022-10-15T18:54:25.384Z,3.83
2022-10-15T18:56:53.857Z,3.58
2022-10-15T18:59:21.757Z,3.80
2022-10-15T19:01:50.824Z,4.22
2022-10-15T19:04:20.681Z,3.90
2022-10-15T19:06:50.518Z,3.22
2022-10-15T19:09:24.518Z,4.43
2022-10-15T19:11:55.199Z,5.22
2022-10-15T19:14:24.102Z,5.68
2022-10-15T19:16:54.132Z,6.18
2022-10-15T19:19:23.237Z,5.25
2022-10-15T19:21:52.248Z,4.60
2022-10-15T19:24:21.671Z,4.47
2022-10-15T19:26:51.623Z,6.13
2022-10-15T19:29:19.592Z,6.60
2022-10-15T19:31:49.100Z,6.07
2022-10-15T19:34:17.087Z,5.82
2022-10-15T19:36:47.238Z,4.70
2022-10-15T19:39:17.478Z,4.03
2022-10-15T19:41:46.685Z,5.95
2022-10-15T19:44:17.998Z,4.57
2022-10-15T19:46:46.766Z,4.95
2022-10-15T19:49:15.262Z,3.67
2022-10-15T19:51:43.286Z,4.00
2022-10-15T19:54:10.963Z,4.55
2022-10-15T19:56:38.587Z,3.40
2022-10-15T19:59:07.029Z,3.25
2022-10-15T20:01:36.017Z,3.50
2022-10-15T20:04:06.865Z,3.13
2022-10-15T20:06:36.055Z,3.40
2022-10-15T20:09:03.751Z,3.60
2022-10-15T20:11:31.950Z,2.80
2022-10-15T20:13:59.526Z,4.00
2022-10-15T20:16:32.210Z,5.65
2022-10-15T20:19:03.480Z,3.53
2022-10-15T20:21:31.518Z,3.60
2022-10-15T20:23:59.249Z,3.95
2022-10-15T20:26:26.822Z,3.58
2022-10-15T20:28:54.537Z,4.70
2022-10-15T20:31:24.838Z,2.58
2022-10-15T20:33:52.450Z,2.30
2022-10-15T20:36:24.035Z,3.22
2022-10-15T20:38:52.600Z,2.17
2022-10-15T20:41:20.727Z,3.67
2022-10-15T20:43:55.089Z,2.03
2022-10-15T20:46:26.567Z,4.20
2022-10-15T20:48:56.741Z,2.72
2022-10-15T20:51:28.595Z,2.55
2022-10-15T20:53:56.794Z,4.47
2022-10-15T20:56:40.984Z,3.70
2022-10-15T20:59:44.487Z,2.70
2022-10-15T21:02:13.435Z,2.67
2022-10-15T21:05:09.996Z,2.17
2022-10-15T21:07:47.221Z,2.22
2022-10-15T21:10:17.127Z,2.15
2022-10-15T21:12:49.338Z,3.38
2022-10-15T21:15:17.305Z,3.92
2022-10-15T21:17:44.921Z,4.13
2022-10-15T21:20:12.751Z,3.55
2022-10-15T21:22:43.868Z,3.20
2022-10-15T21:25:11.542Z,2.88
2022-10-15T21:27:39.151Z,3.65
2022-10-15T21:30:10.811Z,3.33
2022-10-15T21:32:38.606Z,2.78
2022-10-15T21:35:08.524Z,2.70
2022-10-15T21:37:37.040Z,2.45
2022-10-15T21:40:07.612Z,3.25
2022-10-15T21:42:35.294Z,2.38
2022-10-15T21:45:08.419Z,3.15
2022-10-15T21:47:36.006Z,2.60
2022-10-15T21:50:03.754Z,3.75
2022-10-15T21:52:31.371Z,4.47
2022-10-15T21:54:59.010Z,5.50
2022-10-15T21:57:32.578Z,3.13
2022-10-15T22:00:00.187Z,3.78
2022-10-15T22:02:27.812Z,3.22
2022-10-15T22:04:55.423Z,2.55
2022-10-15T22:07:23.618Z,3.25
2022-10-15T22:09:51.498Z,2.38
2022-10-15T22:12:21.203Z,2.40
2022-10-15T22:14:50.331Z,2.25
2022-10-15T22:17:17.926Z,2.35
2022-10-15T22:19:45.502Z,4.05
2022-10-15T22:22:13.106Z,3.72
2022-10-15T22:24:41.107Z,2.30
2022-10-15T22:27:09.233Z,2.67
2022-10-15T22:29:36.828Z,2.33
2022-10-15T22:32:06.052Z,2.58
2022-10-15T22:34:36.534Z,2.67
2022-10-15T22:37:04.244Z,2.93
2022-10-15T22:39:33.272Z,1.90
2022-10-15T22:42:00.904Z,1.97
2022-10-15T22:44:28.824Z,2.40
2022-10-15T22:46:56.410Z,2.15
2022-10-15T22:49:26.032Z,1.73
2022-10-15T22:51:53.687Z,2.92
2022-10-15T22:54:23.190Z,2.05
2022-10-15T22:56:51.409Z,3.75
2022-10-15T22:59:19.239Z,2.08
2022-10-15T23:01:55.395Z,1.70
2022-10-15T23:04:23.168Z,1.88
2022-10-15T23:06:55.323Z,2.17
2022-10-15T23:09:24.824Z,3.13
2022-10-15T23:11:55.406Z,2.35
2022-10-15T23:14:23.001Z,2.83
2022-10-15T23:16:50.681Z,2.10
2022-10-15T23:19:19.875Z,2.72
2022-10-15T23:21:54.072Z,3.00
2022-10-15T23:24:25.449Z,3.75
2022-10-15T23:26:53.726Z,3.38
2022-10-15T23:29:23.505Z,2.20
2022-10-15T23:31:51.645Z,2.22
2022-10-15T23:34:21.416Z,1.70
2022-10-15T23:36:49.651Z,3.15
2022-10-15T23:39:19.500Z,1.95
2022-10-15T23:41:51.494Z,1.88
2022-10-15T23:44:19.498Z,2.25
2022-10-15T23:46:47.390Z,2.10
2022-10-15T23:49:15.062Z,3.43
2022-10-15T23:51:43.700Z,3.60
2022-10-15T23:54:17.382Z,1.85
2022-10-15T23:56:48.281Z,1.70
2022-10-15T23:59:18.204Z,2.77
